RYR8X LQSA-LIME
Flight info
| Callsign | RYR8X |
|---|---|
| Flight time | N/A |
| Altitude | 38000 |
| Route | BOSNA DCT ELTIB DCT EBITA DCT IPKIS DCT BAXON DCT SUKOM/N0441F370 DCT BOA/N0442F380 DCT OGPUD DCT BETMU DCT OSBUL |
| Aircraft | B38M/M-SDE1FGHILORVWXY/HB1 |
Departure
| Time | 2026-04-27 16:37 |
|---|---|
| Airport | Sarajevo International Airport (LQSA) |
Arrival
| Time | N/A |
|---|---|
| Airport | Il Caravaggio International Airport (LIME) |
| Time | Latitude | Longitude | Altitude | Speed | Heading |
|---|---|---|---|---|---|
| 2026-04-27 16:14 | 43.82517 | 18.33688 | 1688 ft | 0 kts | 28° |
| 2026-04-27 16:28 | 43.82486 | 18.33656 | 1689 ft | 4 kts | 49° |
| 2026-04-27 16:29 | 43.82473 | 18.33585 | 1690 ft | 1 kts | 118° |
| 2026-04-27 16:33 | 43.82472 | 18.33589 | 1690 ft | 1 kts | 118° |
| 2026-04-27 16:34 | 43.82461 | 18.33617 | 1688 ft | 5 kts | 118° |
| 2026-04-27 16:34 | 43.82439 | 18.33675 | 1694 ft | 8 kts | 116° |
| 2026-04-27 16:34 | 43.82409 | 18.33759 | 1691 ft | 11 kts | 116° |
| 2026-04-27 16:34 | 43.82374 | 18.33854 | 1694 ft | 11 kts | 118° |
| 2026-04-27 16:35 | 43.82337 | 18.33947 | 1697 ft | 10 kts | 118° |
| 2026-04-27 16:35 | 43.82308 | 18.34026 | 1699 ft | 9 kts | 117° |
| 2026-04-27 16:35 | 43.82233 | 18.34225 | 1706 ft | 16 kts | 117° |
| 2026-04-27 16:36 | 43.82172 | 18.34389 | 1710 ft | 22 kts | 116° |
| 2026-04-27 16:36 | 43.82097 | 18.34581 | 1715 ft | 22 kts | 129° |
| 2026-04-27 16:36 | 43.81964 | 18.34597 | 1719 ft | 20 kts | 213° |
| 2026-04-27 16:36 | 43.81954 | 18.34493 | 1716 ft | 11 kts | 298° |
| 2026-04-27 16:37 | 43.82024 | 18.34313 | 1712 ft | 50 kts | 295° |
| 2026-04-27 16:37 | 43.82306 | 18.33552 | 1697 ft | 125 kts | 297° |
| 2026-04-27 16:37 | 43.82799 | 18.32240 | 1808 ft | 171 kts | 298° |
| 2026-04-27 16:37 | 43.83367 | 18.30746 | 2519 ft | 178 kts | 300° |
| 2026-04-27 16:38 | 43.84071 | 18.29355 | 3475 ft | 175 kts | 317° |
| 2026-04-27 16:38 | 43.85189 | 18.28457 | 4007 ft | 199 kts | 343° |
| 2026-04-27 16:38 | 43.86629 | 18.28107 | 4529 ft | 223 kts | 349° |
| 2026-04-27 16:38 | 43.88223 | 18.27674 | 5054 ft | 247 kts | 348° |
| 2026-04-27 16:39 | 43.89897 | 18.27210 | 6262 ft | 240 kts | 348° |
| 2026-04-27 16:39 | 43.91558 | 18.26749 | 7162 ft | 250 kts | 347° |
| 2026-04-27 16:39 | 43.93299 | 18.26344 | 8002 ft | 260 kts | 352° |
| 2026-04-27 16:39 | 43.95134 | 18.26074 | 8667 ft | 278 kts | 352° |
| 2026-04-27 16:40 | 43.97082 | 18.25776 | 9562 ft | 282 kts | 352° |
| 2026-04-27 16:40 | 43.99051 | 18.25449 | 10446 ft | 290 kts | 348° |
| 2026-04-27 16:40 | 44.00929 | 18.24338 | 10963 ft | 303 kts | 319° |
| 2026-04-27 16:40 | 44.02224 | 18.21991 | 11542 ft | 314 kts | 294° |
| 2026-04-27 16:41 | 44.02810 | 18.19031 | 12236 ft | 324 kts | 277° |
| 2026-04-27 16:41 | 44.03104 | 18.15925 | 13150 ft | 325 kts | 278° |
| 2026-04-27 16:41 | 44.03422 | 18.12799 | 14002 ft | 329 kts | 278° |
| 2026-04-27 16:41 | 44.03746 | 18.09634 | 14754 ft | 332 kts | 278° |
| 2026-04-27 16:42 | 44.04074 | 18.06437 | 15510 ft | 336 kts | 279° |
| 2026-04-27 16:42 | 44.04404 | 18.03209 | 16236 ft | 340 kts | 279° |
| 2026-04-27 16:42 | 44.04738 | 17.99936 | 16910 ft | 344 kts | 279° |
| 2026-04-27 16:42 | 44.05077 | 17.96624 | 17635 ft | 347 kts | 279° |
| 2026-04-27 16:43 | 44.05416 | 17.93285 | 18347 ft | 351 kts | 279° |
| 2026-04-27 16:43 | 44.05759 | 17.89912 | 18940 ft | 354 kts | 279° |
| 2026-04-27 16:43 | 44.06102 | 17.86511 | 19549 ft | 357 kts | 279° |
| 2026-04-27 16:43 | 44.06449 | 17.83082 | 20119 ft | 360 kts | 279° |
| 2026-04-27 16:44 | 44.06794 | 17.79628 | 20688 ft | 362 kts | 279° |
| 2026-04-27 16:44 | 44.07025 | 17.77323 | 21061 ft | 365 kts | 279° |
| 2026-04-27 16:44 | 44.07489 | 17.72680 | 21859 ft | 368 kts | 279° |
| 2026-04-27 16:44 | 44.07841 | 17.69137 | 22409 ft | 371 kts | 280° |
| 2026-04-27 16:45 | 44.08194 | 17.65568 | 22957 ft | 374 kts | 280° |
| 2026-04-27 16:45 | 44.08551 | 17.61953 | 23406 ft | 380 kts | 281° |
| 2026-04-27 16:45 | 44.08911 | 17.58311 | 23937 ft | 381 kts | 281° |
| 2026-04-27 16:45 | 44.09270 | 17.54642 | 24375 ft | 385 kts | 281° |
| 2026-04-27 16:46 | 44.09513 | 17.52144 | 24641 ft | 387 kts | 281° |
| 2026-04-27 16:46 | 44.09878 | 17.48418 | 25075 ft | 389 kts | 281° |
| 2026-04-27 16:46 | 44.10240 | 17.44675 | 25516 ft | 392 kts | 281° |
| 2026-04-27 16:46 | 44.10605 | 17.40907 | 25925 ft | 395 kts | 281° |
| 2026-04-27 16:47 | 44.10972 | 17.37111 | 26338 ft | 397 kts | 281° |
| 2026-04-27 16:47 | 44.11339 | 17.33282 | 26738 ft | 400 kts | 281° |
| 2026-04-27 16:47 | 44.11708 | 17.29432 | 27110 ft | 403 kts | 281° |
| 2026-04-27 16:47 | 44.12072 | 17.25604 | 27500 ft | 406 kts | 281° |
| 2026-04-27 16:48 | 44.12444 | 17.21699 | 27875 ft | 409 kts | 281° |
| 2026-04-27 16:48 | 44.12816 | 17.17766 | 28278 ft | 411 kts | 281° |
| 2026-04-27 16:48 | 44.13189 | 17.13811 | 28662 ft | 414 kts | 281° |
| 2026-04-27 16:49 | 44.13938 | 17.05818 | 29381 ft | 419 kts | 281° |
| 2026-04-27 16:49 | 44.14313 | 17.01785 | 29761 ft | 421 kts | 281° |
| 2026-04-27 16:49 | 44.14690 | 16.97732 | 30097 ft | 424 kts | 281° |
| 2026-04-27 16:49 | 44.15067 | 16.93649 | 30396 ft | 426 kts | 281° |
| 2026-04-27 16:50 | 44.15445 | 16.89554 | 30725 ft | 427 kts | 281° |
| 2026-04-27 16:50 | 44.15820 | 16.85448 | 31041 ft | 428 kts | 281° |
| 2026-04-27 16:50 | 44.16197 | 16.81327 | 31318 ft | 430 kts | 280° |
| 2026-04-27 16:50 | 44.16573 | 16.77182 | 31635 ft | 432 kts | 280° |
| 2026-04-27 16:51 | 44.16949 | 16.73028 | 31939 ft | 433 kts | 280° |
| 2026-04-27 16:51 | 44.17326 | 16.68855 | 32224 ft | 435 kts | 280° |
| 2026-04-27 16:51 | 44.17702 | 16.64666 | 32507 ft | 437 kts | 280° |
| 2026-04-27 16:51 | 44.18077 | 16.60460 | 32839 ft | 438 kts | 280° |
| 2026-04-27 16:52 | 44.18449 | 16.56257 | 33238 ft | 437 kts | 280° |
| 2026-04-27 16:52 | 44.18817 | 16.52070 | 33673 ft | 434 kts | 279° |
| 2026-04-27 16:52 | 44.19177 | 16.47953 | 34050 ft | 434 kts | 279° |
| 2026-04-27 16:52 | 44.19545 | 16.43774 | 34124 ft | 434 kts | 279° |
| 2026-04-27 16:53 | 44.20267 | 16.35470 | 34079 ft | 431 kts | 279° |
| 2026-04-27 16:53 | 44.20984 | 16.27172 | 34088 ft | 432 kts | 279° |
| 2026-04-27 16:54 | 44.21698 | 16.18847 | 34060 ft | 432 kts | 279° |
| 2026-04-27 16:54 | 44.22404 | 16.10536 | 34075 ft | 431 kts | 279° |
| 2026-04-27 16:55 | 44.23103 | 16.02236 | 34083 ft | 431 kts | 279° |
| 2026-04-27 16:55 | 44.23796 | 15.93933 | 34084 ft | 431 kts | 279° |
| 2026-04-27 16:56 | 44.24483 | 15.85629 | 34075 ft | 430 kts | 279° |
| 2026-04-27 16:56 | 44.25163 | 15.77332 | 34071 ft | 431 kts | 279° |
| 2026-04-27 16:57 | 44.25837 | 15.69031 | 34066 ft | 430 kts | 278° |
| 2026-04-27 16:57 | 44.26505 | 15.60739 | 34076 ft | 431 kts | 278° |
| 2026-04-27 16:58 | 44.27163 | 15.52491 | 34075 ft | 431 kts | 278° |
| 2026-04-27 16:58 | 44.27820 | 15.44173 | 34438 ft | 431 kts | 278° |
| 2026-04-27 16:59 | 44.28144 | 15.40025 | 34757 ft | 430 kts | 278° |
| 2026-04-27 16:59 | 44.28466 | 15.35879 | 35062 ft | 429 kts | 278° |
| 2026-04-27 16:59 | 44.28787 | 15.31739 | 35354 ft | 429 kts | 278° |
| 2026-04-27 16:59 | 44.29106 | 15.27604 | 35642 ft | 428 kts | 278° |
| 2026-04-27 17:00 | 44.29637 | 15.20682 | 36106 ft | 427 kts | 278° |
| 2026-04-27 17:00 | 44.30052 | 15.15221 | 36459 ft | 427 kts | 278° |
| 2026-04-27 17:00 | 44.30363 | 15.11105 | 36712 ft | 427 kts | 278° |
| 2026-04-27 17:01 | 44.30674 | 15.06986 | 36953 ft | 426 kts | 278° |
| 2026-04-27 17:01 | 44.30983 | 15.02872 | 37171 ft | 426 kts | 278° |
| 2026-04-27 17:01 | 44.31292 | 14.98754 | 37403 ft | 426 kts | 278° |
| 2026-04-27 17:01 | 44.31598 | 14.94644 | 37629 ft | 426 kts | 278° |
| 2026-04-27 17:02 | 44.31902 | 14.90535 | 37850 ft | 425 kts | 278° |
| 2026-04-27 17:02 | 44.32205 | 14.86428 | 38050 ft | 425 kts | 278° |
| 2026-04-27 17:02 | 44.32507 | 14.82315 | 38088 ft | 426 kts | 278° |
| 2026-04-27 17:03 | 44.33104 | 14.74113 | 38073 ft | 423 kts | 278° |
| 2026-04-27 17:03 | 44.33691 | 14.65972 | 38061 ft | 424 kts | 278° |
| 2026-04-27 17:04 | 44.34276 | 14.57777 | 38068 ft | 424 kts | 278° |
| 2026-04-27 17:04 | 44.34855 | 14.49577 | 38070 ft | 424 kts | 277° |
| 2026-04-27 17:05 | 44.35429 | 14.41375 | 38069 ft | 424 kts | 277° |
| 2026-04-27 17:05 | 44.35996 | 14.33171 | 38057 ft | 424 kts | 277° |
| 2026-04-27 17:06 | 44.36558 | 14.24960 | 38064 ft | 425 kts | 277° |
| 2026-04-27 17:06 | 44.37115 | 14.16742 | 38064 ft | 425 kts | 277° |
| 2026-04-27 17:07 | 44.37665 | 14.08529 | 38067 ft | 425 kts | 277° |
| 2026-04-27 17:07 | 44.38206 | 14.00365 | 38065 ft | 425 kts | 277° |
| 2026-04-27 17:08 | 44.38757 | 13.92141 | 38059 ft | 425 kts | 277° |
| 2026-04-27 17:08 | 44.39319 | 13.83916 | 38060 ft | 425 kts | 277° |
| 2026-04-27 17:09 | 44.39873 | 13.75685 | 38063 ft | 425 kts | 277° |
| 2026-04-27 17:09 | 44.40422 | 13.67452 | 38062 ft | 425 kts | 277° |
| 2026-04-27 17:10 | 44.40964 | 13.59223 | 38049 ft | 425 kts | 277° |
| 2026-04-27 17:10 | 44.41502 | 13.50973 | 38066 ft | 426 kts | 277° |
| 2026-04-27 17:11 | 44.42033 | 13.42723 | 38061 ft | 426 kts | 277° |
| 2026-04-27 17:11 | 44.42820 | 13.30341 | 38062 ft | 426 kts | 277° |
| 2026-04-27 17:12 | 44.43593 | 13.17954 | 38057 ft | 427 kts | 277° |
| 2026-04-27 17:13 | 44.44098 | 13.09736 | 38059 ft | 427 kts | 277° |
| 2026-04-27 17:13 | 44.44601 | 13.01458 | 38051 ft | 427 kts | 277° |
| 2026-04-27 17:14 | 44.45098 | 12.93176 | 38057 ft | 427 kts | 277° |
| 2026-04-27 17:14 | 44.45590 | 12.84895 | 38051 ft | 427 kts | 277° |
| 2026-04-27 17:15 | 44.46076 | 12.76601 | 38060 ft | 428 kts | 276° |
| 2026-04-27 17:15 | 44.46555 | 12.68307 | 38066 ft | 428 kts | 276° |
| 2026-04-27 17:16 | 44.47029 | 12.60009 | 38064 ft | 428 kts | 276° |
| 2026-04-27 17:16 | 44.47497 | 12.51716 | 38059 ft | 428 kts | 276° |
| 2026-04-27 17:17 | 44.47959 | 12.43409 | 38056 ft | 428 kts | 276° |
| 2026-04-27 17:17 | 44.48415 | 12.35098 | 38057 ft | 428 kts | 276° |
| 2026-04-27 17:18 | 44.49086 | 12.22673 | 38054 ft | 428 kts | 276° |
| 2026-04-27 17:18 | 44.49528 | 12.14351 | 38055 ft | 428 kts | 276° |
| 2026-04-27 17:19 | 44.49963 | 12.06033 | 38045 ft | 429 kts | 276° |
| 2026-04-27 17:19 | 44.50394 | 11.97692 | 38052 ft | 429 kts | 276° |
| 2026-04-27 17:20 | 44.50818 | 11.89354 | 38055 ft | 429 kts | 276° |
| 2026-04-27 17:20 | 44.51236 | 11.81009 | 38050 ft | 429 kts | 276° |
| 2026-04-27 17:21 | 44.51649 | 11.72665 | 38043 ft | 429 kts | 276° |
| 2026-04-27 17:21 | 44.51853 | 11.68492 | 37879 ft | 429 kts | 276° |
| 2026-04-27 17:21 | 44.52056 | 11.64309 | 36941 ft | 434 kts | 276° |
| 2026-04-27 17:22 | 44.52260 | 11.60066 | 36066 ft | 438 kts | 276° |
| 2026-04-27 17:22 | 44.52463 | 11.55808 | 35409 ft | 438 kts | 276° |
| 2026-04-27 17:22 | 44.52661 | 11.51621 | 34836 ft | 436 kts | 276° |
| 2026-04-27 17:22 | 44.52860 | 11.47388 | 34216 ft | 435 kts | 276° |
| 2026-04-27 17:23 | 44.53057 | 11.43170 | 33593 ft | 433 kts | 276° |
| 2026-04-27 17:23 | 44.53251 | 11.38963 | 32878 ft | 433 kts | 276° |
| 2026-04-27 17:23 | 44.53445 | 11.34730 | 31941 ft | 438 kts | 276° |
| 2026-04-27 17:23 | 44.53680 | 11.30447 | 30977 ft | 443 kts | 281° |
| 2026-04-27 17:24 | 44.54565 | 11.26265 | 30066 ft | 443 kts | 295° |
| 2026-04-27 17:24 | 44.55765 | 11.22325 | 29554 ft | 434 kts | 293° |
| 2026-04-27 17:24 | 44.56883 | 11.18463 | 29079 ft | 422 kts | 293° |
| 2026-04-27 17:24 | 44.57971 | 11.14702 | 28615 ft | 412 kts | 293° |
| 2026-04-27 17:25 | 44.59036 | 11.11016 | 28122 ft | 403 kts | 293° |
| 2026-04-27 17:25 | 44.60077 | 11.07406 | 27629 ft | 395 kts | 293° |
| 2026-04-27 17:25 | 44.61097 | 11.03862 | 27153 ft | 388 kts | 293° |
| 2026-04-27 17:25 | 44.62327 | 11.00514 | 26425 ft | 388 kts | 307° |
| 2026-04-27 17:26 | 44.64210 | 10.97774 | 25609 ft | 394 kts | 322° |
| 2026-04-27 17:26 | 44.66356 | 10.95426 | 24844 ft | 399 kts | 321° |
| 2026-04-27 17:26 | 44.68508 | 10.92958 | 24065 ft | 397 kts | 320° |
| 2026-04-27 17:26 | 44.70624 | 10.90507 | 23292 ft | 391 kts | 320° |
| 2026-04-27 17:27 | 44.72707 | 10.88086 | 22455 ft | 385 kts | 320° |
| 2026-04-27 17:27 | 44.74756 | 10.85696 | 21656 ft | 380 kts | 320° |
| 2026-04-27 17:27 | 44.76775 | 10.83339 | 20891 ft | 375 kts | 320° |
| 2026-04-27 17:27 | 44.78767 | 10.81011 | 20155 ft | 370 kts | 320° |
| 2026-04-27 17:28 | 44.80731 | 10.78712 | 19444 ft | 365 kts | 320° |
| 2026-04-27 17:28 | 44.82672 | 10.76440 | 18764 ft | 360 kts | 320° |
| 2026-04-27 17:28 | 44.86463 | 10.71994 | 17603 ft | 344 kts | 320° |
| 2026-04-27 17:29 | 44.88272 | 10.69874 | 17211 ft | 332 kts | 320° |
| 2026-04-27 17:29 | 44.90022 | 10.67820 | 16840 ft | 325 kts | 320° |
| 2026-04-27 17:29 | 44.91756 | 10.65780 | 16486 ft | 323 kts | 320° |
| 2026-04-27 17:29 | 44.93474 | 10.63756 | 16129 ft | 321 kts | 320° |
| 2026-04-27 17:30 | 44.95183 | 10.61742 | 15782 ft | 320 kts | 320° |
| 2026-04-27 17:30 | 44.98638 | 10.57660 | 15059 ft | 327 kts | 320° |
| 2026-04-27 17:30 | 45.00382 | 10.55597 | 14707 ft | 327 kts | 320° |
| 2026-04-27 17:31 | 45.02126 | 10.53535 | 14353 ft | 326 kts | 320° |
| 2026-04-27 17:31 | 45.03858 | 10.51484 | 13998 ft | 324 kts | 320° |
| 2026-04-27 17:31 | 45.05557 | 10.49470 | 13622 ft | 322 kts | 320° |
| 2026-04-27 17:31 | 45.07269 | 10.47441 | 13240 ft | 320 kts | 320° |